Miller, Nebraska
Current Conditions -  °F | °C
As of 9:55 PM on Wednesday 22 Oct 2014 (Local Time) from KLXN Reporting Station
Haze Haze  
Wind Chill: 51°   Ceiling: Unl
Heat Index: 51°   Visibility: 5mi
Dew Point: 50°   Wind: 0mph
Humidity: 95%   Direction: NA
Pressure: 30.06"   Gusts: NA
Location:  40.93°N, 99.39°W
Report Text: KLXN 230255Z AUTO 00000KT 5SM BR CLR 11/10 A3006 RMK AO2 T01060098
Loading
Personal Weather Stations






























Interactive Weather Map
Tropical Storm Tracking
New forecast layout! Learn more

10-Day Weather Forecast

Advertisements
Track Severe Weather on mobile